createdAt,value
2018-10-21T00:02:08.102Z,36.57
2018-10-21T00:04:36.149Z,35.77
2018-10-21T00:07:04.258Z,32.20
2018-10-21T00:09:32.271Z,34.67
2018-10-21T00:12:00.284Z,39.10
2018-10-21T00:14:28.282Z,31.70
2018-10-21T00:16:56.252Z,35.70
2018-10-21T00:19:24.228Z,37.20
2018-10-21T00:21:52.225Z,40.63
2018-10-21T00:24:20.298Z,35.27
2018-10-21T00:26:48.279Z,44.57
2018-10-21T00:29:16.350Z,38.50
2018-10-21T00:31:44.424Z,41.33
2018-10-21T00:34:12.422Z,44.33
2018-10-21T00:36:40.415Z,36.30
2018-10-21T00:39:10.008Z,48.90
2018-10-21T00:41:38.817Z,41.40
2018-10-21T00:44:06.785Z,38.87
2018-10-21T00:46:34.789Z,34.93
2018-10-21T00:49:02.767Z,44.83
2018-10-21T00:51:30.820Z,38.13
2018-10-21T00:53:58.797Z,43.23
2018-10-21T00:56:26.754Z,36.93
2018-10-21T00:58:54.830Z,46.37
2018-10-21T01:01:22.761Z,41.70
2018-10-21T01:03:50.964Z,41.77
2018-10-21T01:06:19.015Z,42.83
2018-10-21T01:08:46.998Z,45.63
2018-10-21T01:11:14.964Z,42.90
2018-10-21T01:13:42.963Z,47.43
2018-10-21T01:16:10.995Z,41.70
2018-10-21T01:18:38.972Z,48.87
2018-10-21T01:21:06.982Z,52.10
2018-10-21T01:23:34.944Z,48.83
2018-10-21T01:26:03.092Z,48.00
2018-10-21T01:28:31.062Z,43.47
2018-10-21T01:30:59.032Z,43.40
2018-10-21T01:33:27.009Z,44.13
2018-10-21T01:35:55.078Z,45.00
2018-10-21T01:38:23.106Z,52.90
2018-10-21T01:40:57.200Z,52.23
2018-10-21T01:43:26.456Z,46.70
2018-10-21T01:45:54.520Z,49.80
2018-10-21T01:48:23.497Z,58.20
2018-10-21T01:50:51.482Z,50.73
2018-10-21T01:53:20.277Z,45.97
2018-10-21T01:55:48.236Z,57.37
2018-10-21T01:58:16.289Z,50.00
2018-10-21T02:00:44.484Z,52.93
2018-10-21T02:03:12.713Z,52.67
2018-10-21T02:05:41.460Z,47.97
2018-10-21T02:08:09.443Z,56.67
2018-10-21T02:10:37.464Z,51.40
2018-10-21T02:13:06.107Z,48.70
2018-10-21T02:15:34.093Z,56.77
2018-10-21T02:18:02.088Z,54.83
2018-10-21T02:20:30.100Z,59.50
2018-10-21T02:22:58.881Z,51.50
2018-10-21T02:25:28.198Z,61.43
2018-10-21T02:27:56.138Z,63.37
2018-10-21T02:30:27.286Z,52.17
2018-10-21T02:32:55.882Z,59.30
2018-10-21T02:35:24.037Z,54.50
2018-10-21T02:37:52.622Z,57.80
2018-10-21T02:41:38.107Z,60.27
2018-10-21T02:44:07.304Z,61.70
2018-10-21T02:46:35.896Z,53.80
2018-10-21T02:49:04.680Z,51.43
2018-10-21T02:51:32.675Z,60.40
2018-10-21T02:54:00.660Z,55.40
2018-10-21T02:56:28.685Z,58.50
2018-10-21T02:58:56.636Z,61.27
2018-10-21T03:01:24.713Z,58.50
2018-10-21T03:03:52.675Z,56.13
2018-10-21T03:06:20.654Z,71.50
2018-10-21T03:08:48.630Z,57.97
2018-10-21T03:11:16.588Z,63.73
2018-10-21T03:13:44.626Z,68.37
2018-10-21T03:16:12.614Z,55.47
2018-10-21T03:18:40.572Z,69.80
2018-10-21T03:21:08.583Z,55.20
2018-10-21T03:23:36.640Z,65.73
2018-10-21T03:26:04.812Z,62.77
2018-10-21T03:28:33.288Z,64.47
2018-10-21T03:31:01.539Z,61.50
2018-10-21T03:33:29.674Z,63.07
2018-10-21T03:35:57.626Z,60.97
2018-10-21T03:38:25.673Z,60.00
2018-10-21T03:40:53.642Z,66.33
2018-10-21T03:43:21.589Z,64.97
2018-10-21T03:45:49.584Z,63.73
2018-10-21T03:48:17.570Z,68.23
2018-10-21T03:50:45.531Z,65.60
2018-10-21T03:53:14.200Z,62.63
2018-10-21T03:55:43.032Z,63.73
2018-10-21T03:58:11.106Z,61.13
2018-10-21T04:00:39.160Z,63.90
2018-10-21T04:03:07.304Z,63.17
2018-10-21T04:05:35.808Z,79.10
2018-10-21T04:08:03.874Z,65.93
2018-10-21T04:10:31.972Z,65.93
2018-10-21T04:13:00.420Z,72.23
2018-10-21T04:15:28.410Z,61.17
2018-10-21T04:17:56.657Z,60.63
2018-10-21T04:20:24.632Z,60.70
2018-10-21T04:22:53.824Z,73.07
2018-10-21T04:25:22.732Z,72.53
2018-10-21T04:27:51.614Z,66.97
2018-10-21T04:30:21.989Z,72.77
2018-10-21T04:32:53.586Z,70.23
2018-10-21T04:35:22.085Z,72.77
2018-10-21T04:38:31.504Z,68.60
2018-10-21T04:40:59.480Z,69.70
2018-10-21T04:43:27.457Z,65.07
2018-10-21T04:45:55.458Z,72.40
2018-10-21T04:48:23.409Z,65.50
2018-10-21T04:50:51.377Z,70.10
2018-10-21T04:53:19.373Z,75.67
2018-10-21T04:55:47.389Z,71.90
2018-10-21T04:58:15.399Z,73.90
2018-10-21T05:00:43.436Z,77.33
2018-10-21T05:03:11.344Z,73.53
2018-10-21T05:05:39.351Z,69.60
2018-10-21T05:08:07.371Z,68.60
2018-10-21T05:10:36.380Z,64.27
2018-10-21T05:13:05.341Z,67.63
2018-10-21T05:15:34.492Z,70.90
2018-10-21T05:18:02.437Z,70.70
2018-10-21T05:20:30.424Z,67.83
2018-10-21T05:22:58.488Z,73.43
2018-10-21T05:25:26.448Z,65.70
2018-10-21T05:27:54.538Z,77.53
2018-10-21T05:30:22.464Z,70.97
2018-10-21T05:32:50.460Z,65.03
2018-10-21T05:35:19.090Z,67.30
2018-10-21T05:37:47.242Z,65.60
2018-10-21T05:40:17.570Z,77.00
2018-10-21T05:42:45.865Z,73.03
2018-10-21T05:45:14.020Z,74.63
2018-10-21T05:47:42.301Z,69.20
2018-10-21T05:50:11.346Z,69.53
2018-10-21T05:52:39.704Z,74.37
2018-10-21T05:55:07.977Z,73.33
2018-10-21T05:57:35.973Z,67.20
2018-10-21T06:00:05.242Z,77.43
2018-10-21T06:02:33.220Z,72.50
2018-10-21T06:05:01.188Z,70.77
2018-10-21T06:07:29.172Z,71.60
2018-10-21T06:09:57.161Z,70.23
2018-10-21T06:12:25.096Z,73.47
2018-10-21T06:14:53.099Z,67.63
2018-10-21T06:17:30.543Z,72.37
2018-10-21T06:20:01.659Z,71.47
2018-10-21T06:22:33.909Z,72.43
2018-10-21T06:25:01.880Z,79.07
2018-10-21T06:27:29.879Z,62.43
2018-10-21T06:29:57.844Z,71.67
2018-10-21T06:32:25.829Z,65.50
2018-10-21T06:34:53.840Z,72.13
2018-10-21T06:37:21.798Z,71.73
2018-10-21T06:39:49.759Z,62.93
2018-10-21T06:42:17.774Z,70.37
2018-10-21T06:44:45.740Z,72.30
2018-10-21T06:47:13.927Z,75.47
2018-10-21T06:49:41.916Z,77.07
2018-10-21T06:52:10.060Z,77.87
2018-10-21T06:54:38.037Z,76.30
2018-10-21T06:57:06.339Z,74.90
2018-10-21T06:59:34.234Z,70.93
2018-10-21T07:02:02.200Z,77.40
2018-10-21T07:04:30.245Z,77.10
2018-10-21T07:07:04.970Z,84.30
2018-10-21T07:09:32.979Z,78.23
2018-10-21T07:12:00.937Z,80.00
2018-10-21T07:14:28.913Z,79.40
2018-10-21T07:16:56.900Z,65.57
2018-10-21T07:19:24.982Z,62.30
2018-10-21T07:21:52.968Z,69.20
2018-10-21T07:24:20.970Z,76.47
2018-10-21T07:26:48.956Z,83.90
2018-10-21T07:29:16.976Z,71.13
2018-10-21T07:31:44.968Z,75.67
2018-10-21T07:34:13.022Z,67.57
2018-10-21T07:36:40.951Z,69.13
2018-10-21T07:39:10.053Z,75.83
2018-10-21T07:41:38.100Z,75.60
2018-10-21T07:44:06.322Z,66.77
2018-10-21T07:46:34.581Z,78.43
2018-10-21T07:49:02.668Z,73.30
2018-10-21T07:51:30.591Z,70.50
2018-10-21T07:53:58.635Z,74.23
2018-10-21T07:56:26.617Z,73.40
2018-10-21T07:58:54.589Z,74.07
2018-10-21T08:01:22.706Z,69.37
2018-10-21T08:03:50.564Z,65.57
2018-10-21T08:06:31.551Z,68.30
2018-10-21T08:08:59.524Z,65.87
2018-10-21T08:11:27.525Z,70.27
2018-10-21T08:13:55.495Z,66.50
2018-10-21T08:16:23.516Z,64.80
2018-10-21T08:18:52.323Z,71.03
2018-10-21T08:21:20.355Z,72.00
2018-10-21T08:23:48.321Z,71.00
2018-10-21T08:26:16.292Z,68.07
2018-10-21T08:28:44.296Z,64.47
2018-10-21T08:31:12.273Z,66.83
2018-10-21T08:33:40.280Z,64.90
2018-10-21T08:36:08.593Z,67.53
2018-10-21T08:38:36.771Z,59.00
2018-10-21T08:41:05.059Z,63.60
2018-10-21T08:43:33.032Z,64.37
2018-10-21T08:46:01.021Z,62.47
2018-10-21T08:48:29.001Z,64.47
2018-10-21T08:50:57.014Z,66.93
2018-10-21T08:53:24.968Z,73.83
2018-10-21T08:55:52.996Z,65.90
2018-10-21T08:58:20.978Z,57.17
2018-10-21T09:00:48.947Z,63.27
2018-10-21T09:03:16.965Z,63.87
2018-10-21T09:05:44.957Z,64.53
2018-10-21T09:08:12.925Z,60.23
2018-10-21T09:10:41.072Z,53.33
2018-10-21T09:13:08.916Z,59.43
2018-10-21T09:15:36.925Z,63.90
2018-10-21T09:18:05.141Z,61.20
2018-10-21T09:20:33.297Z,58.83
2018-10-21T09:23:01.257Z,65.57
2018-10-21T09:25:29.252Z,58.50
2018-10-21T09:27:57.232Z,62.70
2018-10-21T09:30:25.204Z,63.93
2018-10-21T09:32:53.185Z,65.50
2018-10-21T09:35:21.153Z,59.17
2018-10-21T09:37:49.133Z,57.90
2018-10-21T09:40:18.592Z,67.93
2018-10-21T09:42:48.009Z,60.47
2018-10-21T09:45:18.477Z,62.23
2018-10-21T09:47:46.471Z,59.83
2018-10-21T09:50:14.787Z,62.80
2018-10-21T09:52:42.877Z,47.57
2018-10-21T09:55:16.364Z,47.40
2018-10-21T09:57:45.221Z,52.83
2018-10-21T10:00:17.441Z,52.80
2018-10-21T10:02:51.910Z,51.70
2018-10-21T10:05:19.969Z,54.60
2018-10-21T10:07:47.885Z,44.63
2018-10-21T10:10:15.890Z,48.00
2018-10-21T10:12:44.029Z,45.53
2018-10-21T10:15:11.989Z,50.00
2018-10-21T10:17:40.184Z,41.47
2018-10-21T10:20:09.597Z,46.37
2018-10-21T10:22:37.545Z,44.00
2018-10-21T10:25:06.501Z,39.60
2018-10-21T10:27:34.441Z,41.70
2018-10-21T10:30:02.686Z,42.20
2018-10-21T10:32:30.649Z,38.33
2018-10-21T10:34:58.618Z,38.40
2018-10-21T10:37:26.691Z,33.93
2018-10-21T10:39:54.653Z,40.80
2018-10-21T10:42:22.674Z,35.27
2018-10-21T10:44:50.581Z,37.13
2018-10-21T10:47:18.562Z,39.13
2018-10-21T10:49:46.525Z,40.30
2018-10-21T10:52:14.539Z,41.50
2018-10-21T10:54:42.606Z,45.67
2018-10-21T10:57:10.678Z,40.20
2018-10-21T10:59:38.837Z,39.73
2018-10-21T11:02:06.893Z,37.90
2018-10-21T11:04:34.849Z,39.30
2018-10-21T11:07:02.841Z,35.07
2018-10-21T11:09:31.831Z,38.30
2018-10-21T11:11:59.781Z,36.27
2018-10-21T11:14:27.782Z,42.47
2018-10-21T11:16:55.822Z,31.03
2018-10-21T11:19:24.812Z,36.77
2018-10-21T11:21:52.973Z,36.23
2018-10-21T11:24:20.888Z,39.33
2018-10-21T11:26:49.132Z,33.10
2018-10-21T11:29:17.319Z,28.87
2018-10-21T11:31:45.585Z,31.57
2018-10-21T11:34:13.820Z,26.17
2018-10-21T11:36:42.087Z,25.73
2018-10-21T11:39:10.312Z,33.20
2018-10-21T11:41:45.045Z,38.00
2018-10-21T11:44:13.020Z,34.77
2018-10-21T11:46:40.981Z,32.17
2018-10-21T11:49:08.970Z,35.53
2018-10-21T11:51:37.025Z,31.73
2018-10-21T11:54:04.972Z,28.90
2018-10-21T11:56:37.344Z,23.50
2018-10-21T11:59:06.460Z,28.93
2018-10-21T12:01:34.449Z,32.80
2018-10-21T12:04:02.486Z,31.00
2018-10-21T12:06:30.491Z,24.10
2018-10-21T12:08:58.415Z,25.07
2018-10-21T12:11:26.391Z,25.50
2018-10-21T12:13:54.353Z,25.50
2018-10-21T12:19:24.053Z,32.20
2018-10-21T12:21:52.189Z,28.43
2018-10-21T12:24:20.194Z,34.70
2018-10-21T12:26:48.137Z,31.00
2018-10-21T12:29:16.161Z,25.73
2018-10-21T12:31:44.159Z,25.57
2018-10-21T12:34:12.163Z,26.33
2018-10-21T12:36:40.093Z,23.90
2018-10-21T12:39:09.256Z,24.20
2018-10-21T12:41:37.350Z,25.10
2018-10-21T12:44:05.349Z,25.03
2018-10-21T12:46:33.313Z,29.13
2018-10-21T12:49:01.416Z,36.03
2018-10-21T12:51:29.345Z,29.97
2018-10-21T12:53:57.525Z,29.10
2018-10-21T12:56:25.467Z,29.30
2018-10-21T12:58:53.443Z,28.90
2018-10-21T13:01:21.461Z,25.23
2018-10-21T13:03:49.440Z,21.27
2018-10-21T13:06:17.580Z,20.70
2018-10-21T13:08:46.152Z,25.93
2018-10-21T13:11:14.225Z,22.47
2018-10-21T13:13:42.220Z,29.63
2018-10-21T13:16:10.377Z,18.63
2018-10-21T13:18:38.318Z,16.50
2018-10-21T13:21:06.287Z,13.13
2018-10-21T13:23:34.605Z,14.77
2018-10-21T13:26:02.681Z,12.27
2018-10-21T13:28:30.776Z,12.53
2018-10-21T13:30:58.786Z,11.10
2018-10-21T13:33:26.748Z,9.20
2018-10-21T13:35:54.712Z,9.80
2018-10-21T13:38:22.727Z,11.90
2018-10-21T13:40:50.716Z,10.23
2018-10-21T13:43:18.781Z,12.77
2018-10-21T13:45:46.851Z,14.27
2018-10-21T13:48:14.784Z,15.83
2018-10-21T13:50:42.793Z,13.00
2018-10-21T13:53:10.994Z,14.17
2018-10-21T13:55:38.915Z,15.17
2018-10-21T13:58:06.915Z,12.53
2018-10-21T14:00:35.046Z,14.33
2018-10-21T14:03:03.052Z,14.53
2018-10-21T14:05:31.028Z,10.63
2018-10-21T14:07:59.107Z,11.20
2018-10-21T14:10:27.102Z,10.90
2018-10-21T14:12:55.077Z,20.30
2018-10-21T14:15:23.102Z,12.60
2018-10-21T14:17:51.016Z,15.10
2018-10-21T14:20:18.966Z,15.20
2018-10-21T14:22:46.948Z,14.97
2018-10-21T14:25:14.924Z,12.30
2018-10-21T14:27:43.095Z,14.63
2018-10-21T14:30:11.083Z,14.37
2018-10-21T14:32:39.359Z,16.97
2018-10-21T14:35:08.657Z,19.33
2018-10-21T14:37:37.159Z,19.53
2018-10-21T14:40:06.665Z,20.90
2018-10-21T14:42:34.645Z,15.87
2018-10-21T14:45:02.660Z,17.93
2018-10-21T14:47:30.689Z,18.60
2018-10-21T14:49:58.671Z,16.17
2018-10-21T14:52:26.677Z,15.73
2018-10-21T14:54:54.715Z,17.57
2018-10-21T14:57:22.716Z,18.37
2018-10-21T14:59:50.785Z,16.53
2018-10-21T15:02:18.756Z,17.50
2018-10-21T15:04:46.842Z,17.97
2018-10-21T15:07:14.801Z,17.70
2018-10-21T15:09:43.179Z,14.20
2018-10-21T15:12:11.430Z,21.53
2018-10-21T15:14:39.415Z,18.73
2018-10-21T15:17:07.369Z,18.07
2018-10-21T15:19:35.401Z,18.67
2018-10-21T15:22:03.370Z,16.87
2018-10-21T15:24:31.366Z,15.93
2018-10-21T15:26:59.412Z,15.40
2018-10-21T15:29:27.453Z,21.67
2018-10-21T15:31:55.426Z,18.50
2018-10-21T15:34:23.464Z,19.07
2018-10-21T15:36:51.428Z,16.43
2018-10-21T15:39:19.403Z,19.73
2018-10-21T15:41:47.496Z,16.83
2018-10-21T15:44:15.491Z,16.20
2018-10-21T15:46:43.461Z,16.87
2018-10-21T15:49:11.505Z,17.70
2018-10-21T15:51:39.490Z,15.83
2018-10-21T15:54:07.444Z,20.97
2018-10-21T15:56:35.527Z,17.33
2018-10-21T15:59:03.513Z,17.37
2018-10-21T16:01:31.475Z,27.13
2018-10-21T16:03:59.527Z,16.37
2018-10-21T16:06:27.592Z,14.33
2018-10-21T16:08:55.648Z,19.07
2018-10-21T16:11:23.604Z,18.67
2018-10-21T16:13:51.601Z,15.13
2018-10-21T16:16:19.715Z,21.07
2018-10-21T16:18:47.668Z,18.20
2018-10-21T16:21:15.667Z,26.20
2018-10-21T16:23:43.625Z,18.60
2018-10-21T16:26:11.656Z,16.40
2018-10-21T16:28:39.614Z,21.03
2018-10-21T16:31:07.574Z,22.33
2018-10-21T16:33:35.658Z,30.10
2018-10-21T16:36:03.724Z,31.20
2018-10-21T16:38:31.742Z,23.33
2018-10-21T16:40:59.780Z,30.13
2018-10-21T16:43:27.838Z,25.97
2018-10-21T16:45:55.816Z,27.07
2018-10-21T16:48:23.773Z,24.07
2018-10-21T16:50:51.761Z,28.03
2018-10-21T16:53:19.720Z,29.43
2018-10-21T16:55:47.709Z,27.30
2018-10-21T16:58:15.653Z,25.70
2018-10-21T17:00:43.911Z,27.43
2018-10-21T17:03:11.805Z,31.77
2018-10-21T17:05:39.695Z,38.57
2018-10-21T17:08:07.731Z,31.33
2018-10-21T17:10:36.053Z,34.17
2018-10-21T17:13:03.804Z,27.83
2018-10-21T17:15:31.744Z,32.17
2018-10-21T17:17:59.722Z,36.57
2018-10-21T17:20:27.701Z,31.47
2018-10-21T17:22:55.648Z,38.00
2018-10-21T17:25:23.706Z,32.00
2018-10-21T17:27:51.688Z,41.93
2018-10-21T17:30:19.803Z,37.27
2018-10-21T17:32:47.898Z,43.23
2018-10-21T17:35:15.848Z,32.77
2018-10-21T17:37:43.900Z,45.03
2018-10-21T17:40:12.681Z,44.90
2018-10-21T17:42:40.644Z,39.23
2018-10-21T17:45:11.505Z,43.70
2018-10-21T17:47:39.511Z,35.40
2018-10-21T17:50:08.684Z,34.20
2018-10-21T17:52:36.903Z,34.47
2018-10-21T17:55:05.259Z,46.63
2018-10-21T17:57:33.277Z,45.97
2018-10-21T18:00:01.456Z,48.47
2018-10-21T18:02:29.481Z,46.57
2018-10-21T18:04:57.452Z,40.60
2018-10-21T18:07:25.514Z,41.57
2018-10-21T18:09:53.493Z,50.87
2018-10-21T18:12:21.496Z,40.60
2018-10-21T18:14:49.741Z,44.77
2018-10-21T18:17:17.748Z,43.00
2018-10-21T18:19:45.721Z,39.30
2018-10-21T18:22:13.815Z,45.13
2018-10-21T18:24:41.758Z,48.27
2018-10-21T18:27:09.781Z,44.53
2018-10-21T18:29:37.744Z,38.90
2018-10-21T18:32:05.748Z,46.80
2018-10-21T18:34:33.702Z,43.87
2018-10-21T18:37:01.832Z,51.70
2018-10-21T18:39:29.727Z,53.20
2018-10-21T18:41:57.751Z,69.63
2018-10-21T18:44:25.741Z,60.57
2018-10-21T18:46:53.777Z,55.20
2018-10-21T18:49:21.722Z,46.13
2018-10-21T18:51:49.781Z,50.53
2018-10-21T18:54:17.742Z,52.20
2018-10-21T18:56:45.728Z,43.20
2018-10-21T18:59:13.703Z,46.70
2018-10-21T19:01:41.705Z,45.83
2018-10-21T19:04:09.767Z,46.67
2018-10-21T19:06:44.409Z,38.00
2018-10-21T19:09:13.261Z,51.73
2018-10-21T19:11:41.280Z,41.00
2018-10-21T19:14:09.376Z,37.80
2018-10-21T19:16:37.472Z,42.37
2018-10-21T19:19:05.733Z,36.90
2018-10-21T19:21:33.699Z,32.63
2018-10-21T19:24:01.678Z,55.50
2018-10-21T19:26:29.683Z,43.70
2018-10-21T19:28:57.695Z,39.23
2018-10-21T19:31:25.713Z,40.30
2018-10-21T19:33:53.790Z,43.07
2018-10-21T19:36:21.720Z,44.30
2018-10-21T19:38:49.885Z,34.97
2018-10-21T19:41:17.889Z,36.00
2018-10-21T19:43:45.849Z,46.03
2018-10-21T19:46:13.876Z,40.70
2018-10-21T19:48:41.829Z,38.67
2018-10-21T19:51:09.828Z,52.20
2018-10-21T19:53:37.843Z,38.23
2018-10-21T19:56:05.882Z,38.63
2018-10-21T19:58:33.889Z,40.47
2018-10-21T20:01:01.888Z,44.50
2018-10-21T20:03:29.986Z,39.10
2018-10-21T20:05:57.949Z,36.87
2018-10-21T20:08:25.984Z,40.33
2018-10-21T20:10:53.987Z,38.67
2018-10-21T20:13:22.006Z,39.20
2018-10-21T20:15:50.007Z,38.43
2018-10-21T20:18:18.189Z,35.90
2018-10-21T20:20:46.082Z,32.87
2018-10-21T20:23:14.056Z,36.53
2018-10-21T20:25:42.036Z,30.50
2018-10-21T20:28:10.101Z,36.27
2018-10-21T20:30:38.039Z,33.90
2018-10-21T20:33:06.071Z,36.47
2018-10-21T20:35:34.005Z,39.10
2018-10-21T20:38:02.096Z,35.83
2018-10-21T20:40:30.053Z,36.40
2018-10-21T20:42:58.094Z,30.37
2018-10-21T20:45:26.079Z,32.13
2018-10-21T20:47:54.037Z,35.67
2018-10-21T20:50:22.012Z,36.23
2018-10-21T20:52:49.969Z,37.73
2018-10-21T20:55:17.962Z,36.07
2018-10-21T20:57:46.009Z,33.17
2018-10-21T21:00:14.001Z,38.13
2018-10-21T21:02:41.947Z,36.07
2018-10-21T21:05:10.205Z,35.63
2018-10-21T21:07:38.211Z,33.70
2018-10-21T21:10:06.862Z,36.70
2018-10-21T21:12:34.848Z,39.57
2018-10-21T21:15:02.921Z,43.27
2018-10-21T21:17:30.908Z,41.70
2018-10-21T21:19:58.876Z,43.03
2018-10-21T21:22:26.824Z,40.30
2018-10-21T21:24:54.810Z,41.90
2018-10-21T21:27:22.784Z,40.47
2018-10-21T21:29:50.794Z,39.50
2018-10-21T21:32:18.780Z,36.87
2018-10-21T21:34:46.773Z,38.20
2018-10-21T21:37:14.757Z,37.13
2018-10-21T21:39:42.728Z,41.73
2018-10-21T21:42:10.746Z,38.07
2018-10-21T21:44:38.668Z,34.10
2018-10-21T21:47:06.700Z,37.53
2018-10-21T21:49:34.688Z,40.50
2018-10-21T21:52:02.724Z,39.97
2018-10-21T21:54:30.693Z,32.87
2018-10-21T21:56:58.695Z,34.07
2018-10-21T21:59:26.705Z,38.17
2018-10-21T22:01:54.694Z,42.37
2018-10-21T22:04:22.676Z,35.57
2018-10-21T22:06:50.665Z,38.67
2018-10-21T22:09:18.649Z,39.10
2018-10-21T22:11:46.690Z,34.13
2018-10-21T22:14:14.814Z,41.97
2018-10-21T22:16:42.760Z,41.10
2018-10-21T22:19:10.848Z,38.77
2018-10-21T22:21:39.200Z,41.63
2018-10-21T22:24:08.183Z,39.13
2018-10-21T22:26:36.164Z,44.70
2018-10-21T22:29:04.166Z,39.10
2018-10-21T22:31:32.166Z,42.37
2018-10-21T22:34:00.181Z,41.67
2018-10-21T22:36:28.160Z,39.73
2018-10-21T22:38:56.177Z,36.80
2018-10-21T22:41:24.250Z,42.83
2018-10-21T22:43:52.330Z,37.43
2018-10-21T22:46:20.296Z,37.40
2018-10-21T22:48:48.836Z,45.67
2018-10-21T22:51:16.806Z,38.97
2018-10-21T22:53:44.791Z,41.63
2018-10-21T22:56:12.793Z,44.63
2018-10-21T22:58:40.845Z,40.13
2018-10-21T23:01:09.005Z,35.17
2018-10-21T23:03:37.029Z,35.70
2018-10-21T23:08:39.488Z,41.90
2018-10-21T23:11:07.694Z,36.80
2018-10-21T23:13:35.733Z,41.43
2018-10-21T23:16:04.025Z,45.07
2018-10-21T23:18:31.992Z,48.57
2018-10-21T23:20:59.966Z,43.60
2018-10-21T23:23:27.968Z,38.67
2018-10-21T23:25:55.968Z,37.20
2018-10-21T23:28:23.960Z,40.33
2018-10-21T23:30:52.816Z,31.50
2018-10-21T23:33:20.808Z,36.00
2018-10-21T23:35:48.857Z,33.33
2018-10-21T23:38:16.847Z,34.80
2018-10-21T23:40:44.861Z,41.87
2018-10-21T23:43:12.880Z,37.30
2018-10-21T23:45:40.909Z,36.50
2018-10-21T23:48:08.897Z,37.70
2018-10-21T23:50:36.880Z,39.37
2018-10-21T23:53:05.231Z,34.60
2018-10-21T23:55:33.216Z,32.63
2018-10-21T23:58:01.197Z,33.90
